메인 페이지
METAR-TAF:

METAR-TAF

공항 :

나타우, 히우그란지두노르치, 브라질

위도: 05-46-05S, 경도: 035-22-34W, 고도: 88m

현재 날씨관측

예보는 1 시간 17분 전, 19:00시(UTC)에 발표되었습니다.
13kt, 순간 최대 풍속 23kt남동풍과 남남서풍을 오가는
온도 27°C
습도 74%
기압 1011 hPa
시정 10km 이상
고도 2600ft 상공 구름 많음

METAR: SBSG 181900Z 17013G23KT 130V210 9999 BKN026 27/22 Q1011

시각: 17:17 (20:17 UTC)

예보

예보는 5 시간 17분 전, 15:00시(UTC)에 발표되었습니다.
예보 대상 시간: 18일 18시부터 19일 18시까지 (UTC)
10kt
시정: 9000m
고도 2000ft 상공 구름 보통
전환 중
19일 00시부터 19일 02시까지 (UTC)
남남서5kt
전환 중
19일 11시부터 19일 13시까지 (UTC)
남동13kt
고도 2000ft 상공 구름 많음
전환 중
19일 16시부터 19일 17시까지 (UTC)
고도 3000ft 상공 구름 보통

TAF: SBSG 181500Z 1818/1918 17010KT 9000 SCT020 TN23/1907Z TX29/1915Z BECMG 1900/1902 20005KT BECMG 1911/1913 14013KT BKN020 BECMG 1916/1917 SCT030 RMK PBO

4,000개 이상의 공항 관측 자료 및 예보 (METAR 및 TAF 보고).

지도상에서 검색 가능한 기상관측소가 노란 점과 빨간 점으로 표시되어 있습니다.

기상관측소 명을 보려면 표시 위로 마우스를 이동하세요.

날씨 관측과 예보를 보려면 클릭하세요.

지도 변경 : 확대하려면 엑스 표시가 있는 녹색 버튼, 축소하려면 빼기 표시가 있는 녹색 버튼, 다음 페이지의 지도를 보려면 녹색 화살표를 클릭하세요.


METAR-TAF: